Tarpon — WDG9715 — position and weather

sailwx.info

Track history (hours):
 
Tides and Currents Weather Stations Pressure Air Temp Water Temp Dewpoint Dewpoint Depression Visibility Wind Speed Wind Dir Waves Ship Positions

Tarpon

Owner: Kirby Offshore Marine, LLC, Staten Island, NY. More information available from US FCC via Universal Licensing System and Coast Guard Vessel Documentation Center.

Last reported at 2017-Dec-15 14:00 UTC. Time now 2017-Dec-15 14:25 UTC.
Position N 40°35' W 074°13'.

Length 149 m; draft 4.9 m.

Type: . MMSI: 366920940.

Date/timePositionNaut miles runAvg speedWind from/ knotsBaromVisibWave heightAir tempDewpointWater temp
2017-Dec-15 14:00N 40°35' W 074°13'2 0.1
2017-Dec-14 14:22N 40°34' W 074°14'0 0.0
2017-Dec-14 13:58N 40°34' W 074°14'0 0.0
2017-Dec-14 13:16N 40°34' W 074°14'0 0.4
2017-Dec-14 12:56N 40°33' W 074°14'0 0.0
2017-Dec-14 12:18N 40°33' W 074°14'0 0.3
2017-Dec-14 11:58N 40°33' W 074°14'2 4.1
2017-Dec-14 11:30N 40°35' W 074°13'1 2.8
2017-Dec-14 11:00N 40°36' W 074°12'2 3.5
2017-Dec-14 10:30N 40°38' W 074°12'3 5.5
2017-Dec-14 10:00N 40°39' W 074°09'4 7.3
2017-Dec-14 09:31N 40°39' W 074°04'3 6.3
2017-Dec-14 09:00N 40°42' W 074°02'3 5.6
2017-Dec-14 08:30N 40°44' W 074°01'2 4.9
2017-Dec-14 08:00N 40°47' W 073°60'3 5.2
2017-Dec-14 07:30N 40°49' W 073°58'3 6.3
2017-Dec-14 07:00N 40°52' W 073°57'4 7.4
2017-Dec-14 06:29N 40°56' W 073°55'1 0.8
2017-Dec-14 05:04N 40°57' W 073°55'0 0.0
2017-Dec-14 04:55N 40°57' W 073°55'0 0.0
2017-Dec-14 04:25N 40°57' W 073°55'0 0.0
2017-Dec-14 03:43N 40°57' W 073°55'0 0.0
2017-Dec-14 03:22N 40°57' W 073°55'0 0.0
2017-Dec-14 02:58N 40°57' W 073°55'0 0.1
2017-Dec-14 00:31N 40°57' W 073°55'0 0.1
2017-Dec-14 00:28N 40°57' W 073°55'0 0.1
2017-Dec-13 21:19N 40°57' W 073°55'0 0.0
2017-Dec-13 19:49N 40°57' W 073°55'0 0.0
2017-Dec-13 19:10N 40°57' W 073°55'0 0.0
2017-Dec-13 18:59N 40°57' W 073°55'0 0.1
2017-Dec-13 18:29N 40°57' W 073°55'0 0.0
2017-Dec-13 17:59N 40°57' W 073°55'0 0.0
2017-Dec-13 17:29N 40°57' W 073°55'0 0.0
2017-Dec-13 17:00N 40°57' W 073°55'0 0.1
2017-Dec-13 16:29N 40°57' W 073°55'0 0.1
2017-Dec-13 15:59N 40°57' W 073°55'1 1.1
2017-Dec-13 15:30N 40°56' W 073°54'1 0.5
2017-Dec-13 14:20N 40°57' W 073°55'0 0.0
2017-Dec-13 13:38N 40°57' W 073°55'0 0.1
2017-Dec-13 11:11N 40°57' W 073°55'0 0.0
2017-Dec-13 10:53N 40°57' W 073°55'0 0.0
2017-Dec-13 10:23N 40°57' W 073°55'0 0.1
2017-Dec-13 07:53N 40°57' W 073°55'0 0.1
2017-Dec-13 06:50N 40°57' W 073°55'0 0.0
2017-Dec-13 06:29N 40°57' W 073°55'0 0.0
2017-Dec-13 05:59N 40°57' W 073°55'0 0.0
2017-Dec-13 05:20N 40°57' W 073°55'0 0.0
2017-Dec-13 03:50N 40°57' W 073°55'0 0.0
2017-Dec-13 03:29N 40°57' W 073°55'0 0.0
2017-Dec-13 02:59N 40°57' W 073°55'0 0.0
2017-Dec-13 02:29N 40°57' W 073°55'0 0.0
2017-Dec-13 01:56N 40°57' W 073°55'0 0.0
2017-Dec-13 01:08N 40°57' W 073°55'0 0.0
2017-Dec-13 00:47N 40°57' W 073°55'0 0.0
2017-Dec-12 19:32N 40°57' W 073°55'0 0.0
2017-Dec-12 19:29N 40°57' W 073°55'0 0.1
2017-Dec-12 18:56N 40°57' W 073°55'0 0.0
2017-Dec-12 18:23N 40°57' W 073°55'0 0.0
2017-Dec-12 17:59N 40°57' W 073°55'0 0.0
2017-Dec-12 17:29N 40°57' W 073°55'1 2.4
2017-Dec-12 16:58N 40°55' W 073°55'0 0.3
2017-Dec-12 15:48N 40°55' W 073°55'0 0.1
2017-Dec-12 14:27N 40°55' W 073°55'0 0.1
2017-Dec-12 12:15N 40°55' W 073°55'0 0.0
2017-Dec-12 11:57N 40°55' W 073°55'0 0.0
2017-Dec-12 11:12N 40°55' W 073°55'0 0.1
2017-Dec-12 10:48N 40°55' W 073°55'0 0.1
2017-Dec-12 10:18N 40°55' W 073°55'0 0.0
2017-Dec-12 09:51N 40°55' W 073°55'0 0.0
2017-Dec-12 09:27N 40°55' W 073°55'0 0.0
2017-Dec-12 09:00N 40°55' W 073°55'0 0.0
2017-Dec-12 08:27N 40°55' W 073°55'0 0.0
2017-Dec-12 07:45N 40°55' W 073°55'0 0.0
2017-Dec-12 07:27N 40°55' W 073°55'0 0.0
2017-Dec-12 06:57N 40°55' W 073°55'0 0.4
2017-Dec-12 06:30N 40°55' W 073°55'0 0.1
2017-Dec-12 06:00N 40°55' W 073°55'0 0.0
2017-Dec-12 05:24N 40°55' W 073°55'0 0.0
2017-Dec-12 04:48N 40°55' W 073°55'0 0.0
2017-Dec-12 04:27N 40°55' W 073°55'0 0.0
2017-Dec-12 03:54N 40°55' W 073°55'0 0.0
2017-Dec-12 03:21N 40°55' W 073°55'0 0.0
2017-Dec-12 02:57N 40°55' W 073°55'0 0.0
2017-Dec-12 02:30N 40°55' W 073°55'0 0.0
2017-Dec-12 01:42N 40°55' W 073°55'0 0.0
2017-Dec-12 01:15N 40°55' W 073°55'0 0.1
2017-Dec-12 00:57N 40°55' W 073°55'0 0.2
2017-Dec-11 23:51N 40°55' W 073°55'0 0.0
2017-Dec-11 23:27N 40°55' W 073°55'0 0.1
2017-Dec-11 22:57N 40°55' W 073°55'0 0.0
2017-Dec-11 22:27N 40°55' W 073°55'0 0.0
2017-Dec-11 21:51N 40°55' W 073°55'0 0.0
2017-Dec-11 21:30N 40°55' W 073°55'0 0.0
2017-Dec-11 21:00N 40°55' W 073°55'0 0.0
2017-Dec-11 20:21N 40°55' W 073°55'0 0.0
2017-Dec-11 19:57N 40°55' W 073°55'0 0.0
2017-Dec-11 19:30N 40°55' W 073°55'0 0.2
2017-Dec-11 19:00N 40°55' W 073°55'0 0.2
2017-Dec-11 18:30N 40°55' W 073°55'0 0.0
2017-Dec-11 18:00N 40°55' W 073°55'0 0.0
2017-Dec-11 17:25N 40°55' W 073°55'0 0.0
2017-Dec-11 16:58N 40°55' W 073°55'0 0.3
2017-Dec-11 16:29N 40°55' W 073°55'1 2.6
2017-Dec-11 15:59N 40°56' W 073°54'1 2.6
2017-Dec-11 15:29N 40°55' W 073°55'0 0.0
2017-Dec-11 14:57N 40°55' W 073°55'1 2.9
2017-Dec-11 14:30N 40°56' W 073°54'1 1.4
2017-Dec-11 13:37N 40°55' W 073°55'0 0.1
2017-Dec-11 13:19N 40°55' W 073°55'0 0.0
2017-Dec-11 12:58N 40°55' W 073°55'0 0.2
2017-Dec-11 11:25N 40°55' W 073°55'0 0.0
2017-Dec-11 10:58N 40°55' W 073°55'0 0.0
2017-Dec-11 10:22N 40°55' W 073°55'0 0.0
2017-Dec-11 09:55N 40°55' W 073°55'0 0.0
2017-Dec-11 09:28N 40°55' W 073°55'0 0.0
2017-Dec-11 08:58N 40°55' W 073°55'0 0.0
2017-Dec-11 08:25N 40°55' W 073°55'0 0.0
2017-Dec-11 07:55N 40°55' W 073°55'0 0.0
2017-Dec-11 07:28N 40°55' W 073°55'0 0.0
2017-Dec-11 06:58N 40°55' W 073°55'0 0.2
2017-Dec-11 06:22N 40°55' W 073°55'0 0.3
2017-Dec-11 05:55N 40°55' W 073°55'0 0.1
2017-Dec-11 05:19N 40°55' W 073°55'0 0.0
2017-Dec-11 04:37N 40°55' W 073°55'0 0.1
2017-Dec-11 04:16N 40°55' W 073°55'0 0.0
2017-Dec-11 03:52N 40°55' W 073°55'0 0.0
2017-Dec-11 01:49N 40°55' W 073°55'0 0.0
2017-Dec-11 01:19N 40°55' W 073°55'0 0.0
2017-Dec-11 00:55N 40°55' W 073°55'0 0.0
2017-Dec-11 00:28N 40°55' W 073°55'0 0.0
2017-Dec-10 23:37N 40°55' W 073°55'0 0.0
2017-Dec-10 23:16N 40°55' W 073°55'0 0.2
2017-Dec-10 22:55N 40°55' W 073°55'0 0.3
2017-Dec-10 22:25N 40°55' W 073°55'0 0.1
2017-Dec-10 21:43N 40°55' W 073°55'0 0.1
2017-Dec-10 21:28N 40°55' W 073°55'0 0.0
2017-Dec-10 20:58N 40°55' W 073°55'0 0.0
2017-Dec-10 20:28N 40°55' W 073°55'0 0.0
2017-Dec-10 19:58N 40°55' W 073°55'0 0.0
2017-Dec-10 19:25N 40°55' W 073°55'0 0.0
2017-Dec-10 18:52N 40°55' W 073°55'0 0.1
2017-Dec-10 18:28N 40°55' W 073°55'0 0.1
2017-Dec-10 16:25N 40°55' W 073°55'0 0.1
2017-Dec-10 15:58N 40°55' W 073°55'0 0.0
2017-Dec-10 15:13N 40°55' W 073°55'0 0.0
2017-Dec-10 14:31N 40°55' W 073°55'0 0.0
2017-Dec-10 14:16N 40°55' W 073°55'0 0.0
2017-Dec-10 13:46N 40°55' W 073°55'0 0.0
2017-Dec-10 13:19N 40°55' W 073°55'0 0.0
2017-Dec-10 12:52N 40°55' W 073°55'0 0.0
2017-Dec-10 12:22N 40°55' W 073°55'0 0.0
2017-Dec-10 11:52N 40°55' W 073°55'0 0.1
2017-Dec-10 11:28N 40°55' W 073°55'0 0.3
2017-Dec-10 10:46N 40°55' W 073°55'0 0.2
2017-Dec-10 10:16N 40°55' W 073°55'0 0.1
2017-Dec-10 09:58N 40°55' W 073°55'0 0.0
2017-Dec-10 09:28N 40°55' W 073°55'0 0.0
2017-Dec-10 08:58N 40°55' W 073°55'0 0.0
2017-Dec-10 08:10N 40°55' W 073°55'0 0.0
2017-Dec-10 07:52N 40°55' W 073°55'0 0.0
2017-Dec-10 07:22N 40°55' W 073°55'0 0.0
2017-Dec-10 06:58N 40°55' W 073°55'0 0.0
2017-Dec-10 06:25N 40°55' W 073°55'0 0.0
2017-Dec-10 05:58N 40°55' W 073°55'0 0.3
2017-Dec-10 05:25N 40°55' W 073°55'0 0.1
2017-Dec-10 04:31N 40°55' W 073°55'0 0.0
2017-Dec-10 04:25N 40°55' W 073°55'0 0.0
2017-Dec-10 02:04N 40°55' W 073°55'0 0.0
2017-Dec-10 01:40N 40°55' W 073°55'0 0.0
2017-Dec-09 23:37N 40°55' W 073°55'0 0.0
2017-Dec-09 23:25N 40°55' W 073°55'0 0.0
2017-Dec-09 22:31N 40°55' W 073°55'0 0.0
2017-Dec-09 22:10N 40°55' W 073°55'0 0.1
2017-Dec-09 21:55N 40°55' W 073°55'0 0.2
2017-Dec-09 20:28N 40°55' W 073°55'0 0.0
2017-Dec-09 19:10N 40°55' W 073°55'0 0.0
2017-Dec-09 18:55N 40°55' W 073°55'0 0.0
2017-Dec-09 17:40N 40°55' W 073°55'0 0.1
2017-Dec-09 17:28N 40°55' W 073°55'0 0.0
2017-Dec-09 16:52N 40°55' W 073°55'0 0.1
2017-Dec-09 16:22N 40°55' W 073°55'0 0.3
2017-Dec-09 16:00N 40°55' W 073°55'1 2.2
2017-Dec-09 15:29N 40°56' W 073°54'0 0.3
2017-Dec-09 15:00N 40°56' W 073°54'1 2.6
2017-Dec-09 14:30N 40°55' W 073°55'0 0.0
2017-Dec-09 13:37N 40°55' W 073°55'0 0.0
2017-Dec-09 12:40N 40°55' W 073°55'0 0.1
2017-Dec-09 12:25N 40°55' W 073°55'0 0.0
2017-Dec-09 10:58N 40°55' W 073°55'0 0.0
2017-Dec-09 10:25N 40°55' W 073°55'0 0.0
2017-Dec-09 09:55N 40°55' W 073°55'0 0.3
2017-Dec-09 09:22N 40°55' W 073°55'0 0.2
2017-Dec-09 08:52N 40°55' W 073°55'0 0.0
2017-Dec-09 08:28N 40°55' W 073°55'0 0.0
2017-Dec-09 07:52N 40°55' W 073°55'0 0.0
2017-Dec-09 07:28N 40°55' W 073°55'0 0.0
2017-Dec-09 06:55N 40°55' W 073°55'0 0.0
2017-Dec-09 06:25N 40°55' W 073°55'0 0.0
2017-Dec-09 05:55N 40°55' W 073°55'0 0.0
2017-Dec-09 05:28N 40°55' W 073°55'0 0.0
2017-Dec-09 04:55N 40°55' W 073°55'0 0.2
2017-Dec-09 04:07N 40°55' W 073°55'0 0.1
2017-Dec-09 03:46N 40°55' W 073°55'0 0.0
2017-Dec-09 01:43N 40°55' W 073°55'0 0.0
2017-Dec-09 01:25N 40°55' W 073°55'0 0.7
2017-Dec-09 01:00N 40°55' W 073°55'  
Track history (hours):
 
Tides and Currents Weather Stations Pressure Air Temp Water Temp Dewpoint Dewpoint Depression Visibility Wind Speed Wind Dir Waves Ship Positions

Tarpon

Owner: Kirby Offshore Marine, LLC, Staten Island, NY. More information available from US FCC via Universal Licensing System and Coast Guard Vessel Documentation Center.

Last reported at 2017-Dec-15 14:00 UTC. Time now 2017-Dec-15 14:25 UTC.
Position N 40°35' W 074°13'.

Length 149 m; draft 4.9 m.

Type: . MMSI: 366920940.

Date/timePositionNaut miles runAvg speedWind from/ knotsBaromVisibWave heightAir tempDewpointWater temp
2017-Dec-15 14:00N 40°35' W 074°13'2 0.1
2017-Dec-14 14:22N 40°34' W 074°14'0 0.0
2017-Dec-14 13:58N 40°34' W 074°14'0 0.0
2017-Dec-14 13:16N 40°34' W 074°14'0 0.4
2017-Dec-14 12:56N 40°33' W 074°14'0 0.0
2017-Dec-14 12:18N 40°33' W 074°14'0 0.3
2017-Dec-14 11:58N 40°33' W 074°14'2 4.1
2017-Dec-14 11:30N 40°35' W 074°13'1 2.8
2017-Dec-14 11:00N 40°36' W 074°12'2 3.5
2017-Dec-14 10:30N 40°38' W 074°12'3 5.5
2017-Dec-14 10:00N 40°39' W 074°09'4 7.3
2017-Dec-14 09:31N 40°39' W 074°04'3 6.3
2017-Dec-14 09:00N 40°42' W 074°02'3 5.6
2017-Dec-14 08:30N 40°44' W 074°01'2 4.9
2017-Dec-14 08:00N 40°47' W 073°60'3 5.2
2017-Dec-14 07:30N 40°49' W 073°58'3 6.3
2017-Dec-14 07:00N 40°52' W 073°57'4 7.4
2017-Dec-14 06:29N 40°56' W 073°55'1 0.8
2017-Dec-14 05:04N 40°57' W 073°55'0 0.0
2017-Dec-14 04:55N 40°57' W 073°55'0 0.0
2017-Dec-14 04:25N 40°57' W 073°55'0 0.0
2017-Dec-14 03:43N 40°57' W 073°55'0 0.0
2017-Dec-14 03:22N 40°57' W 073°55'0 0.0
2017-Dec-14 02:58N 40°57' W 073°55'0 0.1
2017-Dec-14 00:31N 40°57' W 073°55'0 0.1
2017-Dec-14 00:28N 40°57' W 073°55'0 0.1
2017-Dec-13 21:19N 40°57' W 073°55'0 0.0
2017-Dec-13 19:49N 40°57' W 073°55'0 0.0
2017-Dec-13 19:10N 40°57' W 073°55'0 0.0
2017-Dec-13 18:59N 40°57' W 073°55'0 0.1
2017-Dec-13 18:29N 40°57' W 073°55'0 0.0
2017-Dec-13 17:59N 40°57' W 073°55'0 0.0
2017-Dec-13 17:29N 40°57' W 073°55'0 0.0
2017-Dec-13 17:00N 40°57' W 073°55'0 0.1
2017-Dec-13 16:29N 40°57' W 073°55'0 0.1
2017-Dec-13 15:59N 40°57' W 073°55'1 1.1
2017-Dec-13 15:30N 40°56' W 073°54'1 0.5
2017-Dec-13 14:20N 40°57' W 073°55'0 0.0
2017-Dec-13 13:38N 40°57' W 073°55'0 0.1
2017-Dec-13 11:11N 40°57' W 073°55'0 0.0
2017-Dec-13 10:53N 40°57' W 073°55'0 0.0
2017-Dec-13 10:23N 40°57' W 073°55'0 0.1
2017-Dec-13 07:53N 40°57' W 073°55'0 0.1
2017-Dec-13 06:50N 40°57' W 073°55'0 0.0
2017-Dec-13 06:29N 40°57' W 073°55'0 0.0
2017-Dec-13 05:59N 40°57' W 073°55'0 0.0
2017-Dec-13 05:20N 40°57' W 073°55'0 0.0
2017-Dec-13 03:50N 40°57' W 073°55'0 0.0
2017-Dec-13 03:29N 40°57' W 073°55'0 0.0
2017-Dec-13 02:59N 40°57' W 073°55'0 0.0
2017-Dec-13 02:29N 40°57' W 073°55'0 0.0
2017-Dec-13 01:56N 40°57' W 073°55'0 0.0
2017-Dec-13 01:08N 40°57' W 073°55'0 0.0
2017-Dec-13 00:47N 40°57' W 073°55'0 0.0
2017-Dec-12 19:32N 40°57' W 073°55'0 0.0
2017-Dec-12 19:29N 40°57' W 073°55'0 0.1
2017-Dec-12 18:56N 40°57' W 073°55'0 0.0
2017-Dec-12 18:23N 40°57' W 073°55'0 0.0
2017-Dec-12 17:59N 40°57' W 073°55'0 0.0
2017-Dec-12 17:29N 40°57' W 073°55'1 2.4
2017-Dec-12 16:58N 40°55' W 073°55'0 0.3
2017-Dec-12 15:48N 40°55' W 073°55'0 0.1
2017-Dec-12 14:27N 40°55' W 073°55'0 0.1
2017-Dec-12 12:15N 40°55' W 073°55'0 0.0
2017-Dec-12 11:57N 40°55' W 073°55'0 0.0
2017-Dec-12 11:12N 40°55' W 073°55'0 0.1
2017-Dec-12 10:48N 40°55' W 073°55'0 0.1
2017-Dec-12 10:18N 40°55' W 073°55'0 0.0
2017-Dec-12 09:51N 40°55' W 073°55'0 0.0
2017-Dec-12 09:27N 40°55' W 073°55'0 0.0
2017-Dec-12 09:00N 40°55' W 073°55'0 0.0
2017-Dec-12 08:27N 40°55' W 073°55'0 0.0
2017-Dec-12 07:45N 40°55' W 073°55'0 0.0
2017-Dec-12 07:27N 40°55' W 073°55'0 0.0
2017-Dec-12 06:57N 40°55' W 073°55'0 0.4
2017-Dec-12 06:30N 40°55' W 073°55'0 0.1
2017-Dec-12 06:00N 40°55' W 073°55'0 0.0
2017-Dec-12 05:24N 40°55' W 073°55'0 0.0
2017-Dec-12 04:48N 40°55' W 073°55'0 0.0
2017-Dec-12 04:27N 40°55' W 073°55'0 0.0
2017-Dec-12 03:54N 40°55' W 073°55'0 0.0
2017-Dec-12 03:21N 40°55' W 073°55'0 0.0
2017-Dec-12 02:57N 40°55' W 073°55'0 0.0
2017-Dec-12 02:30N 40°55' W 073°55'0 0.0
2017-Dec-12 01:42N 40°55' W 073°55'0 0.0
2017-Dec-12 01:15N 40°55' W 073°55'0 0.1
2017-Dec-12 00:57N 40°55' W 073°55'0 0.2
2017-Dec-11 23:51N 40°55' W 073°55'0 0.0
2017-Dec-11 23:27N 40°55' W 073°55'0 0.1
2017-Dec-11 22:57N 40°55' W 073°55'0 0.0
2017-Dec-11 22:27N 40°55' W 073°55'0 0.0
2017-Dec-11 21:51N 40°55' W 073°55'0 0.0
2017-Dec-11 21:30N 40°55' W 073°55'0 0.0
2017-Dec-11 21:00N 40°55' W 073°55'0 0.0
2017-Dec-11 20:21N 40°55' W 073°55'0 0.0
2017-Dec-11 19:57N 40°55' W 073°55'0 0.0
2017-Dec-11 19:30N 40°55' W 073°55'0 0.2
2017-Dec-11 19:00N 40°55' W 073°55'0 0.2
2017-Dec-11 18:30N 40°55' W 073°55'0 0.0
2017-Dec-11 18:00N 40°55' W 073°55'0 0.0
2017-Dec-11 17:25N 40°55' W 073°55'0 0.0
2017-Dec-11 16:58N 40°55' W 073°55'0 0.3
2017-Dec-11 16:29N 40°55' W 073°55'1 2.6
2017-Dec-11 15:59N 40°56' W 073°54'1 2.6
2017-Dec-11 15:29N 40°55' W 073°55'0 0.0
2017-Dec-11 14:57N 40°55' W 073°55'1 2.9
2017-Dec-11 14:30N 40°56' W 073°54'1 1.4
2017-Dec-11 13:37N 40°55' W 073°55'0 0.1
2017-Dec-11 13:19N 40°55' W 073°55'0 0.0
2017-Dec-11 12:58N 40°55' W 073°55'0 0.2
2017-Dec-11 11:25N 40°55' W 073°55'0 0.0
2017-Dec-11 10:58N 40°55' W 073°55'0 0.0
2017-Dec-11 10:22N 40°55' W 073°55'0 0.0
2017-Dec-11 09:55N 40°55' W 073°55'0 0.0
2017-Dec-11 09:28N 40°55' W 073°55'0 0.0
2017-Dec-11 08:58N 40°55' W 073°55'0 0.0
2017-Dec-11 08:25N 40°55' W 073°55'0 0.0
2017-Dec-11 07:55N 40°55' W 073°55'0 0.0
2017-Dec-11 07:28N 40°55' W 073°55'0 0.0
2017-Dec-11 06:58N 40°55' W 073°55'0 0.2
2017-Dec-11 06:22N 40°55' W 073°55'0 0.3
2017-Dec-11 05:55N 40°55' W 073°55'0 0.1
2017-Dec-11 05:19N 40°55' W 073°55'0 0.0
2017-Dec-11 04:37N 40°55' W 073°55'0 0.1
2017-Dec-11 04:16N 40°55' W 073°55'0 0.0
2017-Dec-11 03:52N 40°55' W 073°55'0 0.0
2017-Dec-11 01:49N 40°55' W 073°55'0 0.0
2017-Dec-11 01:19N 40°55' W 073°55'0 0.0
2017-Dec-11 00:55N 40°55' W 073°55'0 0.0
2017-Dec-11 00:28N 40°55' W 073°55'0 0.0
2017-Dec-10 23:37N 40°55' W 073°55'0 0.0
2017-Dec-10 23:16N 40°55' W 073°55'0 0.2
2017-Dec-10 22:55N 40°55' W 073°55'0 0.3
2017-Dec-10 22:25N 40°55' W 073°55'0 0.1
2017-Dec-10 21:43N 40°55' W 073°55'0 0.1
2017-Dec-10 21:28N 40°55' W 073°55'0 0.0
2017-Dec-10 20:58N 40°55' W 073°55'0 0.0
2017-Dec-10 20:28N 40°55' W 073°55'0 0.0
2017-Dec-10 19:58N 40°55' W 073°55'0 0.0
2017-Dec-10 19:25N 40°55' W 073°55'0 0.0
2017-Dec-10 18:52N 40°55' W 073°55'0 0.1
2017-Dec-10 18:28N 40°55' W 073°55'0 0.1
2017-Dec-10 16:25N 40°55' W 073°55'0 0.1
2017-Dec-10 15:58N 40°55' W 073°55'0 0.0
2017-Dec-10 15:13N 40°55' W 073°55'0 0.0
2017-Dec-10 14:31N 40°55' W 073°55'0 0.0
2017-Dec-10 14:16N 40°55' W 073°55'0 0.0
2017-Dec-10 13:46N 40°55' W 073°55'0 0.0
2017-Dec-10 13:19N 40°55' W 073°55'0 0.0
2017-Dec-10 12:52N 40°55' W 073°55'0 0.0
2017-Dec-10 12:22N 40°55' W 073°55'0 0.0
2017-Dec-10 11:52N 40°55' W 073°55'0 0.1
2017-Dec-10 11:28N 40°55' W 073°55'0 0.3
2017-Dec-10 10:46N 40°55' W 073°55'0 0.2
2017-Dec-10 10:16N 40°55' W 073°55'0 0.1
2017-Dec-10 09:58N 40°55' W 073°55'0 0.0
2017-Dec-10 09:28N 40°55' W 073°55'0 0.0
2017-Dec-10 08:58N 40°55' W 073°55'0 0.0
2017-Dec-10 08:10N 40°55' W 073°55'0 0.0
2017-Dec-10 07:52N 40°55' W 073°55'0 0.0
2017-Dec-10 07:22N 40°55' W 073°55'0 0.0
2017-Dec-10 06:58N 40°55' W 073°55'0 0.0
2017-Dec-10 06:25N 40°55' W 073°55'0 0.0
2017-Dec-10 05:58N 40°55' W 073°55'0 0.3
2017-Dec-10 05:25N 40°55' W 073°55'0 0.1
2017-Dec-10 04:31N 40°55' W 073°55'0 0.0
2017-Dec-10 04:25N 40°55' W 073°55'0 0.0
2017-Dec-10 02:04N 40°55' W 073°55'0 0.0
2017-Dec-10 01:40N 40°55' W 073°55'0 0.0
2017-Dec-09 23:37N 40°55' W 073°55'0 0.0
2017-Dec-09 23:25N 40°55' W 073°55'0 0.0
2017-Dec-09 22:31N 40°55' W 073°55'0 0.0
2017-Dec-09 22:10N 40°55' W 073°55'0 0.1
2017-Dec-09 21:55N 40°55' W 073°55'0 0.2
2017-Dec-09 20:28N 40°55' W 073°55'0 0.0
2017-Dec-09 19:10N 40°55' W 073°55'0 0.0
2017-Dec-09 18:55N 40°55' W 073°55'0 0.0
2017-Dec-09 17:40N 40°55' W 073°55'0 0.1
2017-Dec-09 17:28N 40°55' W 073°55'0 0.0
2017-Dec-09 16:52N 40°55' W 073°55'0 0.1
2017-Dec-09 16:22N 40°55' W 073°55'0 0.3
2017-Dec-09 16:00N 40°55' W 073°55'1 2.2
2017-Dec-09 15:29N 40°56' W 073°54'0 0.3
2017-Dec-09 15:00N 40°56' W 073°54'1 2.6
2017-Dec-09 14:30N 40°55' W 073°55'0 0.0
2017-Dec-09 13:37N 40°55' W 073°55'0 0.0
2017-Dec-09 12:40N 40°55' W 073°55'0 0.1
2017-Dec-09 12:25N 40°55' W 073°55'0 0.0
2017-Dec-09 10:58N 40°55' W 073°55'0 0.0
2017-Dec-09 10:25N 40°55' W 073°55'0 0.0
2017-Dec-09 09:55N 40°55' W 073°55'0 0.3
2017-Dec-09 09:22N 40°55' W 073°55'0 0.2
2017-Dec-09 08:52N 40°55' W 073°55'0 0.0
2017-Dec-09 08:28N 40°55' W 073°55'0 0.0
2017-Dec-09 07:52N 40°55' W 073°55'0 0.0
2017-Dec-09 07:28N 40°55' W 073°55'0 0.0
2017-Dec-09 06:55N 40°55' W 073°55'0 0.0
2017-Dec-09 06:25N 40°55' W 073°55'0 0.0
2017-Dec-09 05:55N 40°55' W 073°55'0 0.0
2017-Dec-09 05:28N 40°55' W 073°55'0 0.0
2017-Dec-09 04:55N 40°55' W 073°55'0 0.2
2017-Dec-09 04:07N 40°55' W 073°55'0 0.1
2017-Dec-09 03:46N 40°55' W 073°55'0 0.0
2017-Dec-09 01:43N 40°55' W 073°55'0 0.0
2017-Dec-09 01:25N 40°55' W 073°55'0 0.7
2017-Dec-09 01:00N 40°55' W 073°55'  

Dump ship's entire track history